Terminal Aerodrome Forecast
Issued by NWS

Home | Current Version | Previous Version | Text Only | Print | Product List | Glossary On
Versions: 1 2 3 4 5 6 7 8 9 10 11 12 13 14 15 16 17 18 19 20 21 22 23 24 25 26 27 28 29 30 31 32 33 34 35 36 37 38 39 40 41 42 43 44 45 46
000
FTUS43 KLSX 181120
TAFUIN
TAF
KUIN 181120Z 1812/1912 VRB03KT 6SM BR OVC014
     FM181800 10010KT P6SM OVC007
     FM190000 08013G19KT 5SM -SN OVC006
     FM190400 07014G21KT 1 1/2SM -SN OVC005
     FM191000 03018G29KT 1 1/2SM -SN OVC009=

USA.gov is the U.S. government's official web portal to all federal, state and local government web resources and services.